Time;durP1;ratioP1;P1;durP2;ratioP2;P2;SDS_P1;SDS_P2;PMS_P1;PMS_P2;Temp;Humidity;BMP_temperature;BMP_pressure;BME280_temperature;BME280_humidity;BME280_pressure;Samples;Min_cycle;Max_cycle;Signal;HPM_P1;HPM_P2
2022/03/13 00:00:59;;;;;;;;;;;;;;;;;;;;;
2022/03/13 00:06:39;;;;;;;13.80;7.45;;;;;;;-0.09;69.69;93300.91;5093703;28;20066;-91
2022/03/13 00:09:29;;;;;;;12.43;7.50;;;;;;;-0.15;69.61;93304.31;5105130;28;20040;-91
2022/03/13 00:11:58;;;;;;;12.73;7.85;;;;;;;-0.14;69.92;93313.59;5087309;28;20112;-90
2022/03/13 00:14:44;;;;;;;;;;;;;;;;;;;;;
2022/03/13 00:17:44;;;;;;;11.43;7.22;;;;;;;-0.29;69.88;93300.97;5096215;28;20550;-90
2022/03/13 00:20:22;;;;;;;;;;;;;;;0.08;70.13;93363.09;5111284;28;20555;-90
2022/03/13 00:23:06;;;;;;;11.70;6.28;;;;;;;-0.22;70.25;93323.13;5099060;28;19915;-91
2022/03/13 00:25:44;;;;;;;11.18;6.72;;;;;;;-0.13;70.63;93341.72;5089339;28;20688;-91
2022/03/13 00:28:18;;;;;;;11.80;7.30;;;;;;;-0.46;70.91;93303.13;5074272;28;20047;-90
2022/03/13 00:34:10;;;;;;;19.08;8.32;;;;;;;-0.45;71.20;93309.84;5085219;28;20048;-90
2022/03/13 00:36:54;;;;;;;13.05;7.43;;;;;;;-0.66;71.22;93296.19;5087587;28;20132;-91
2022/03/13 00:40:02;;;;;;;14.73;7.82;;;;;;;-0.48;71.53;93333.41;5078921;28;20040;-90
2022/03/13 00:42:38;;;;;;;10.63;7.18;;;;;;;-0.74;72.12;93298.19;5100362;28;20071;-91
2022/03/13 00:45:20;;;;;;;14.90;9.00;;;;;;;-0.86;71.94;93285.13;5060538;28;20062;-90
2022/03/13 00:48:24;;;;;;;13.98;8.35;;;;;;;-0.88;72.44;93279.38;5085275;28;20089;-90
2022/03/13 00:51:15;;;;;;;12.15;7.88;;;;;;;-0.90;72.88;93289.06;5064134;28;20131;-91
2022/03/13 00:54:18;;;;;;;12.98;8.68;;;;;;;-0.93;72.92;93289.47;5079812;28;20501;-90
2022/03/13 00:57:20;;;;;;;;;;;;;;;;;;;;;
2022/03/13 01:00:03;;;;;;;12.47;7.67;;;;;;;-0.80;73.25;93307.47;5064856;28;20094;-90
2022/03/13 01:02:53;;;;;;;18.48;7.75;;;;;;;-0.73;73.22;93328.84;5058436;28;20116;-91
2022/03/13 01:05:41;;;;;;;18.70;10.60;;;;;;;-1.02;72.93;93285.50;5085497;28;20040;-91
2022/03/13 01:08:19;;;;;;;23.35;12.90;;;;;;;-1.17;73.52;93265.91;5060327;28;20118;-91
2022/03/13 01:10:49;;;;;;;20.00;11.05;;;;;;;-0.97;73.18;93301.91;5059039;28;20059;-90
2022/03/13 01:13:47;;;;;;;;;;;;;;;;;;;;;
2022/03/13 01:16:36;;;;;;;12.35;7.85;;;;;;;-0.98;73.58;93302.91;5087844;28;20046;-90
2022/03/13 01:19:35;;;;;;;11.98;7.25;;;;;;;-1.13;72.81;93282.50;5074418;28;20118;-91
2022/03/13 01:22:16;;;;;;;14.30;8.18;;;;;;;-0.90;72.97;93317.31;5075789;28;20047;-90
2022/03/13 01:24:57;;;;;;;14.27;8.55;;;;;;;-1.21;73.49;93276.78;5072876;28;20041;-92
2022/03/13 01:30:35;;;;;;;11.93;8.48;;;;;;;-1.39;73.10;93249.06;5054238;28;20041;-91
2022/03/13 01:33:23;;;;;;;13.75;8.15;;;;;;;-1.43;73.95;93242.72;5073730;28;20036;-90
2022/03/13 01:36:08;;;;;;;14.55;8.32;;;;;;;-1.42;73.98;93244.28;5044039;28;20067;-91
2022/03/13 01:39:00;;;;;;;13.35;8.52;;;;;;;-1.45;74.78;93237.78;5084672;28;20048;-90
2022/03/13 01:44:24;;;;;;;14.68;7.55;;;;;;;-1.48;74.56;93235.59;5069109;28;19912;-90
2022/03/13 01:47:16;;;;;;;11.50;8.15;;;;;;;-1.39;75.15;93249.06;5087590;28;20119;-91
2022/03/13 01:49:56;;;;;;;14.07;8.52;;;;;;;-1.48;75.20;93231.25;5088850;28;20089;-90
2022/03/13 01:53:01;;;;;;;15.30;7.67;;;;;;;-1.38;75.21;93246.28;5057413;28;20033;-91
2022/03/13 01:56:01;;;;;;;12.02;7.32;;;;;;;-1.30;75.48;93258.97;5064880;28;20067;-91
2022/03/13 01:58:40;;;;;;;14.57;7.13;;;;;;;-1.55;74.80;93220.19;5061699;28;20035;-90
2022/03/13 02:01:35;;;;;;;13.15;7.88;;;;;;;-1.56;74.87;93218.59;5078465;28;20028;-91
2022/03/13 02:04:31;;;;;;;;;;;;;;;;;;;;;
2022/03/13 02:07:26;;;;;;;12.60;7.72;;;;;;;-1.47;74.43;93232.81;5082584;28;20067;-91
2022/03/13 02:13:11;;;;;;;11.57;7.60;;;;;;;-1.63;74.61;93202.38;5065202;28;20549;-91
2022/03/13 02:16:14;;;;;;;13.18;7.78;;;;;;;-1.20;74.40;93261.16;5069197;28;20076;-90
2022/03/13 02:19:02;;;;;;;;;;;;;;;;;;;;;
2022/03/13 02:24:58;;;;;;;12.73;7.93;;;;;;;-1.37;74.17;93226.56;5077201;28;20541;-91
2022/03/13 02:27:38;;;;;;;13.35;7.78;;;;;;;-1.51;74.47;93210.28;5065059;28;20410;-90
2022/03/13 02:30:21;;;;;;;10.13;7.22;;;;;;;-1.68;74.40;93179.06;5090165;28;20094;-90
2022/03/13 02:33:21;;;;;;;10.40;6.55;;;;;;;-1.40;74.39;93226.91;5073193;28;20090;-90
2022/03/13 02:39:12;;;;;;;13.52;7.72;;;;;;;-1.74;74.85;93174.69;5071551;28;20048;-89
2022/03/13 02:41:58;;;;;;;13.85;7.65;;;;;;;-1.72;74.85;93177.88;5075947;28;20028;-90
2022/03/13 02:45:04;;;;;;;;;;;;;;;;;;;;;
2022/03/13 02:47:39;;;;;;;13.05;7.28;;;;;;;-1.45;74.55;93217.22;5074128;28;20049;-90
2022/03/13 02:50:39;;;;;;;9.27;6.18;;;;;;;-1.52;74.66;93219.78;5090125;28;20036;-90
2022/03/13 02:53:30;;;;;;;13.00;6.93;;;;;;;-1.77;75.02;93172.53;5088180;28;20024;-91
2022/03/13 02:56:19;;;;;;;9.38;6.88;;;;;;;-1.71;75.25;93190.53;5067811;28;20088;-90
2022/03/13 02:59:07;;;;;;;11.00;7.18;;;;;;;-1.76;75.03;93177.44;5085541;28;20120;-90
2022/03/13 03:01:58;;;;;;;10.88;7.07;;;;;;;-1.69;75.56;93177.47;5087194;28;20037;-90
2022/03/13 03:04:55;;;;;;;;;;;;;;;;;;;;;
2022/03/13 03:07:28;;;;;;;12.50;6.95;;;;;;;-1.48;75.93;93191.94;5076380;28;20067;-91
2022/03/13 03:10:02;;;;;;;13.25;7.80;;;;;;;-1.24;76.24;93223.19;5071775;28;20047;-91
2022/03/13 03:12:50;;;;;;;14.18;7.93;;;;;;;-1.19;76.15;93228.53;5063962;28;20040;-91
2022/03/13 03:15:41;;;;;;;13.30;7.35;;;;;;;-1.06;76.50;93244.78;5082803;28;20043;-90
2022/03/13 03:18:33;;;;;;;;;;;;;;;;;;;;;
2022/03/13 03:21:21;;;;;;;;;;;;;;;;;;;;;
2022/03/13 03:24:09;;;;;;;12.90;7.30;;;;;;;-1.42;76.25;93177.53;5083065;28;20111;-92
2022/03/13 03:27:18;;;;;;;10.85;6.82;;;;;;;-1.43;76.27;93175.97;5088836;28;20036;-92
2022/03/13 03:30:17;;;;;;;10.25;6.75;;;;;;;-1.32;76.03;93191.56;5089718;28;20059;-91
2022/03/13 03:32:57;;;;;;;10.93;6.95;;;;;;;-1.26;75.75;93202.84;5072438;28;20139;-91
2022/03/13 03:35:39;;;;;;;11.23;7.15;;;;;;;-1.45;75.72;93177.91;5074075;28;20394;-91
2022/03/13 03:38:45;;;;;;;;;;;;;;;;;;;;;
2022/03/13 03:41:34;;;;;;;12.68;7.38;;;;;;;-1.46;75.92;93166.88;5071568;28;20044;-91
2022/03/13 03:44:08;;;;;;;10.80;6.50;;;;;;;-1.35;75.92;93189.41;5088167;28;20101;-91
2022/03/13 03:46:54;;;;;;;;;;;;;;;;;;;;;
2022/03/13 03:49:58;;;;;;;14.32;7.75;;;;;;;-1.35;76.23;93180.88;5082098;28;20063;-91
2022/03/13 03:52:32;;;;;;;12.20;7.47;;;;;;;-1.43;76.33;93181.09;5062817;28;20043;-92
2022/03/13 03:55:24;;;;;;;12.10;7.22;;;;;;;-1.12;76.24;93239.63;5076573;28;20047;-91
2022/03/13 03:58:21;;;;;;;;;;;;;;;;;;;;;
2022/03/13 04:01:09;;;;;;;;;;;;;;;;;;;;;
2022/03/13 04:04:10;;;;;;;;;;;;;;;;;;;;;
2022/03/13 04:07:08;;;;;;;16.52;8.27;;;;;;;-1.53;76.08;93181.44;5076207;28;20040;-91
2022/03/13 04:09:49;;;;;;;11.05;6.72;;;;;;;-1.57;75.23;93172.56;5054506;28;20052;-92
2022/03/13 04:13:01;;;;;;;10.18;6.47;;;;;;;-1.15;74.09;93240.81;5049010;28;20054;-91
2022/03/13 04:15:33;;;;;;;13.80;6.57;;;;;;;-1.32;71.52;93213.91;5074473;28;20052;-92
2022/03/13 04:18:21;;;;;;;12.45;7.03;;;;;;;-1.37;72.10;93206.78;5075194;28;20041;-91
2022/03/13 04:21:10;;;;;;;10.52;6.30;;;;;;;-1.27;71.92;93226.94;5067888;28;20047;-91
2022/03/13 04:26:49;;;;;;;;;;;;;;;;;;;;;
2022/03/13 04:29:31;;;;;;;;;;;;;;;;;;;;;
2022/03/13 04:32:10;;;;;;;;;;;;;;;;;;;;;
2022/03/13 04:35:05;;;;;;;12.20;6.55;;;;;;;-1.56;71.76;93208.31;5073649;28;20041;-91
2022/03/13 04:38:07;;;;;;;;;;;;;;;;;;;;;
2022/03/13 04:40:43;;;;;;;11.10;6.85;;;;;;;-1.50;71.92;93228.09;5087088;28;20045;-91
2022/03/13 04:43:32;;;;;;;10.50;6.68;;;;;;;-1.83;71.23;93175.88;5060368;28;20100;-91
2022/03/13 04:46:08;;;;;;;10.40;6.78;;;;;;;-1.40;72.14;93250.81;5058335;28;20056;-91
2022/03/13 04:48:49;;;;;;;14.15;7.15;;;;;;;-1.84;72.24;93192.25;5057280;28;20123;-93
2022/03/13 04:51:51;;;;;;;12.93;7.18;;;;;;;-1.77;72.43;93205.91;5075185;28;20035;-92
2022/03/13 04:54:36;;;;;;;;;;;;;;;;;;;;;
2022/03/13 04:58:10;;;;;;;12.20;7.57;;;;;;;-1.73;71.77;93217.38;5090385;28;20308;-92
2022/03/13 05:00:50;;;;;;;;;;;;;;;;;;;;;
2022/03/13 05:04:06;;;;;;;12.20;7.28;;;;;;;-1.60;70.75;93232.81;5085264;28;20489;-91
2022/03/13 05:06:52;;;;;;;14.32;7.30;;;;;;;-1.85;69.02;93178.63;5085715;28;20110;-91
2022/03/13 05:09:37;;;;;;;12.10;7.05;;;;;;;-1.64;69.45;93211.06;5073384;28;20044;-91
2022/03/13 05:12:33;;;;;;;12.80;6.88;;;;;;;-1.69;68.81;93196.25;5094468;28;20256;-92
2022/03/13 05:18:19;;;;;;;;;;;;;;;;;;;;;
2022/03/13 05:21:09;;;;;;;11.15;6.50;;;;;;;-1.60;68.24;93212.28;5078057;28;20066;-91
2022/03/13 05:24:17;;;;;;;;;;;;;;;;;;;;;
2022/03/13 05:27:07;;;;;;;10.65;6.35;;;;;;;-1.28;67.59;93256.19;5072653;28;20040;-92
2022/03/13 05:29:54;;;;;;;10.73;6.28;;;;;;;-1.62;67.79;93214.25;5065753;28;20037;-91
2022/03/13 05:32:32;;;;;;;10.48;5.82;;;;;;;-1.58;67.87;93217.97;5054441;28;20040;-93
2022/03/13 05:35:36;;;;;;;9.13;5.05;;;;;;;-1.62;67.77;93201.41;5087305;28;20075;-91
2022/03/13 05:38:21;;;;;;;6.80;4.53;;;;;;;-1.19;67.72;93264.50;5082782;28;20047;-90
2022/03/13 05:40:52;;;;;;;7.90;4.55;;;;;;;-1.17;67.97;93262.53;5080812;28;20037;-91
2022/03/13 05:43:35;;;;;;;12.02;4.45;;;;;;;-1.59;67.62;93203.56;5060127;28;20121;-91
2022/03/13 05:46:19;;;;;;;7.88;4.95;;;;;;;-1.52;67.84;93224.13;5072984;28;20043;-91
2022/03/13 05:48:55;;;;;;;9.23;4.88;;;;;;;-1.58;67.85;93217.97;5079098;28;20556;-91
2022/03/13 05:51:41;;;;;;;7.40;4.95;;;;;;;-1.62;68.15;93203.97;5055715;28;20032;-85
2022/03/13 05:54:14;;;;;;;7.07;5.22;;;;;;;-1.29;67.89;93254.59;5077399;28;20032;-85
2022/03/13 05:56:42;;;;;;;7.65;4.72;;;;;;;-1.27;67.83;93243.16;5075196;28;20058;-86
2022/03/13 05:59:20;;;;;;;9.27;4.82;;;;;;;-1.09;67.89;93255.44;5057252;28;20032;-86
2022/03/13 06:01:51;;;;;;;8.10;5.07;;;;;;;-1.18;67.67;93204.44;5072511;28;20350;-86
2022/03/13 06:04:17;;;;;;;9.48;5.63;;;;;;;-0.52;66.53;93230.16;5068785;28;20170;-86
2022/03/13 06:06:58;;;;;;;8.02;5.28;;;;;;;0.22;64.08;93209.34;5081634;28;20464;-87
2022/03/13 06:09:34;;;;;;;7.68;5.10;;;;;;;1.15;61.60;93224.25;5060360;28;20039;-87
2022/03/13 06:12:37;;;;;;;7.50;4.68;;;;;;;1.92;59.04;93245.44;5078088;28;20468;-86
2022/03/13 06:15:29;;;;;;;;;;;;;;;;;;;;;
2022/03/13 06:18:10;;;;;;;;;;;;;;;;;;;;;
2022/03/13 06:20:39;;;;;;;7.75;5.43;;;;;;;1.81;58.51;93213.38;5089904;28;20047;-86
2022/03/13 06:23:09;;;;;;;10.48;5.72;;;;;;;1.51;59.23;93223.59;5089398;28;20020;-87
2022/03/13 06:25:44;;;;;;;7.97;5.15;;;;;;;1.52;59.18;93269.03;5067427;28;20043;-87
2022/03/13 06:28:21;;;;;;;8.52;5.43;;;;;;;1.47;59.80;93274.03;5087999;28;20020;-87
2022/03/13 06:31:06;;;;;;;;;;;;;;;;;;;;;
2022/03/13 06:33:40;;;;;;;9.45;5.45;;;;;;;1.42;59.26;93243.69;5087324;28;20140;-88
2022/03/13 06:36:23;;;;;;;;;;;;;;;;;;;;;
2022/03/13 06:39:03;;;;;;;8.32;4.90;;;;;;;1.50;59.41;93254.75;5091456;28;20046;-86
2022/03/13 06:41:53;;;;;;;8.00;5.10;;;;;;;1.47;60.23;93248.22;5080762;28;20050;-87
2022/03/13 06:44:24;;;;;;;9.85;5.20;;;;;;;1.65;61.41;93307.63;5058577;28;20043;-89
2022/03/13 06:47:13;;;;;;;8.30;5.18;;;;;;;1.07;61.44;93245.94;5069536;28;20044;-86
2022/03/13 06:49:42;;;;;;;8.38;5.00;;;;;;;1.07;62.52;93260.63;5071763;28;20058;-87
2022/03/13 06:52:17;;;;;;;8.23;5.32;;;;;;;1.40;62.16;93289.56;5071018;28;20028;-87
2022/03/13 06:54:53;;;;;;;7.80;4.72;;;;;;;1.47;61.92;93294.69;5058084;28;20055;-87
2022/03/13 06:57:37;;;;;;;8.40;4.57;;;;;;;1.48;61.09;93254.16;5071762;28;20036;-87
2022/03/13 07:00:17;;;;;;;9.93;5.30;;;;;;;1.47;61.31;93253.38;5066665;28;20120;-87
2022/03/13 07:02:50;;;;;;;8.35;4.78;;;;;;;1.51;61.72;93264.06;5074238;28;20093;-86
2022/03/13 07:05:38;;;;;;;8.85;5.05;;;;;;;1.59;61.67;93295.56;5072565;28;20042;-87
2022/03/13 07:08:13;;;;;;;8.45;4.95;;;;;;;1.49;61.13;93264.28;5074366;28;20131;-87
2022/03/13 07:10:54;;;;;;;10.02;5.22;;;;;;;1.92;61.20;93296.28;5085333;28;20048;-87
2022/03/13 07:13:32;;;;;;;8.93;5.25;;;;;;;1.93;60.04;93267.66;5072486;28;20040;-86
2022/03/13 07:16:10;;;;;;;8.73;5.53;;;;;;;2.58;59.06;93282.66;5070537;28;20117;-90
2022/03/13 07:18:39;;;;;;;10.10;4.75;;;;;;;3.19;56.61;93255.00;5077145;28;20533;-87
2022/03/13 07:21:13;;;;;;;8.15;5.20;;;;;;;3.30;55.49;93267.19;5069959;28;20029;-87
2022/03/13 07:23:44;;;;;;;9.53;4.93;;;;;;;2.64;57.48;93281.81;5083821;28;20040;-87
2022/03/13 07:26:15;;;;;;;8.75;5.57;;;;;;;2.23;58.41;93266.94;5070900;28;20294;-86
2022/03/13 07:29:02;;;;;;;;;;;;;;;;;;;;;
2022/03/13 07:31:43;;;;;;;9.40;5.80;;;;;;;3.10;55.90;93274.44;5104792;28;20119;-87
2022/03/13 07:34:11;;;;;;;10.13;5.43;;;;;;;2.83;56.72;93259.28;5075742;28;20122;-87
2022/03/13 07:36:42;;;;;;;8.70;5.30;;;;;;;2.57;57.16;93283.69;5060404;28;20028;-87
2022/03/13 07:39:14;;;;;;;8.38;5.55;;;;;;;2.65;57.35;93291.13;5058634;28;20040;-87
2022/03/13 07:41:39;;;;;;;10.68;5.10;;;;;;;2.60;58.48;93282.47;5094967;28;20400;-88
2022/03/13 07:44:10;;;;;;;9.90;5.68;;;;;;;2.09;58.70;93243.06;5057281;28;20128;-86
2022/03/13 07:46:44;;;;;;;7.95;4.80;;;;;;;2.53;57.27;93287.69;5069645;28;20030;-86
2022/03/13 07:49:10;;;;;;;7.93;4.93;;;;;;;2.70;57.38;93283.53;5078082;28;20036;-88
2022/03/13 07:51:49;;;;;;;;;;;;;;;;;;;;;
2022/03/13 07:54:35;;;;;;;7.68;4.88;;;;;;;2.51;56.64;93261.28;5076669;28;20035;-87
2022/03/13 07:57:14;;;;;;;8.68;5.57;;;;;;;2.80;56.68;93283.00;5074250;28;20044;-87
2022/03/13 07:59:54;;;;;;;9.02;6.05;;;;;;;3.24;55.10;93256.94;5074131;28;20107;-86
2022/03/13 08:02:27;;;;;;;10.63;5.93;;;;;;;3.30;54.25;93256.81;5060260;28;20027;-87
2022/03/13 08:05:13;;;;;;;8.18;5.18;;;;;;;3.78;54.83;93283.56;5094206;28;20123;-86
2022/03/13 08:07:43;;;;;;;9.18;5.63;;;;;;;3.38;55.05;93247.16;5056866;28;20397;-92
2022/03/13 08:10:33;;;;;;;8.95;6.03;;;;;;;3.73;55.33;93280.88;5064258;28;20035;-87
2022/03/13 08:13:07;;;;;;;11.35;5.38;;;;;;;3.32;57.62;93279.91;5078590;28;20542;-86
2022/03/13 08:15:38;;;;;;;7.43;4.90;;;;;;;3.33;56.87;93255.59;5089799;28;20036;-86
2022/03/13 08:18:12;;;;;;;10.48;5.95;;;;;;;4.19;56.29;93250.78;5082955;28;20043;-87
2022/03/13 08:20:43;;;;;;;7.63;5.35;;;;;;;4.16;55.04;93277.16;5066577;28;20044;-88
2022/03/13 08:27:20;;;;;;;;;;;;;;;;;;;;;
2022/03/13 08:31:13;;;;;;;7.82;5.63;;;;;;;4.42;54.72;93303.63;5029740;28;20033;-88
2022/03/13 08:37:37;;;;;;;;;;;;;;;4.26;55.60;93305.88;5034800;28;20071;-86
2022/03/13 08:40:08;;;;;;;13.57;5.88;;;;;;;4.70;54.02;93313.25;5084678;28;19915;-88
2022/03/13 08:42:39;;;;;;;9.75;5.50;;;;;;;4.09;55.16;93279.06;5109219;28;20397;-86
2022/03/13 08:45:10;;;;;;;9.40;6.07;;;;;;;4.75;53.86;93285.63;5055517;28;20064;-86
2022/03/13 08:47:46;;;;;;;11.77;6.22;;;;;;;4.10;54.56;93255.53;5085869;28;20071;-88
2022/03/13 08:50:27;;;;;;;11.30;6.55;;;;;;;3.46;56.42;93246.84;5090138;28;20036;-87
2022/03/13 08:52:55;;;;;;;8.75;5.30;;;;;;;4.00;53.97;93270.06;5059370;28;20039;-85
2022/03/13 08:55:22;;;;;;;10.88;7.00;;;;;;;3.57;57.26;93250.47;5073463;28;20419;-91
2022/03/13 08:58:02;;;;;;;10.45;7.03;;;;;;;4.37;54.34;93255.81;5076790;28;20056;-92
2022/03/13 09:00:57;;;;;;;11.38;6.57;;;;;;;4.59;52.66;93265.56;5084390;28;20082;-92
2022/03/13 09:03:37;;;;;;;11.32;7.43;;;;;;;4.52;53.41;93291.63;5085214;28;20032;-91
2022/03/13 09:06:26;;;;;;;11.85;6.72;;;;;;;4.43;54.17;93315.56;5064722;28;20106;-91
2022/03/13 09:09:23;;;;;;;10.35;6.60;;;;;;;4.08;55.45;93267.94;5070642;28;20098;-89
2022/03/13 09:12:04;;;;;;;;;;;;;;;;;;;;;
2022/03/13 09:14:48;;;;;;;;;;;;;;;;;;;;;
2022/03/13 09:17:31;;;;;;;12.38;8.45;;;;;;;3.04;57.82;93247.66;5082411;28;20051;-91
2022/03/13 09:20:43;;;;;;;9.80;6.82;;;;;;;3.07;57.89;93249.03;5070575;28;20076;-91
2022/03/13 09:29:57;;;;;;;14.35;7.25;;;;;;;3.71;57.42;93313.97;5019615;28;20474;-80
2022/03/13 09:32:24;;;;;;;10.13;6.90;;;;;;;3.89;57.06;93306.09;5031914;28;20029;-78
2022/03/13 09:35:11;;;;;;;10.93;6.50;;;;;;;4.37;56.32;93309.47;5008612;28;20025;-78
2022/03/13 09:37:40;;;;;;;12.32;7.60;;;;;;;4.32;56.77;93306.75;5005792;28;20033;-77
2022/03/13 09:40:09;;;;;;;10.82;6.95;;;;;;;3.97;56.57;93307.56;5033355;28;20061;-78
2022/03/13 09:42:34;;;;;;;12.88;8.63;;;;;;;3.95;56.40;93305.19;5017097;28;20029;-79
2022/03/13 09:45:00;;;;;;;12.20;8.07;;;;;;;3.31;57.71;93310.19;5015737;28;20041;-79
2022/03/13 09:47:29;;;;;;;12.48;7.15;;;;;;;4.20;56.77;93311.97;5005634;28;20034;-76
2022/03/13 09:49:55;;;;;;;12.40;7.70;;;;;;;4.71;54.66;93312.25;5012454;28;20046;-78
2022/03/13 09:52:21;;;;;;;12.30;7.65;;;;;;;4.92;54.10;93306.41;4994646;28;20402;-76
2022/03/13 09:54:46;;;;;;;16.08;8.57;;;;;;;4.72;55.08;93314.59;4994890;28;20034;-79
2022/03/13 09:57:12;;;;;;;11.32;7.03;;;;;;;5.33;53.73;93311.56;5012511;28;20049;-79
2022/03/13 09:59:38;;;;;;;14.50;7.88;;;;;;;4.71;54.06;93305.25;5012550;28;20104;-78
2022/03/13 10:02:05;;;;;;;12.80;8.32;;;;;;;4.44;54.76;93311.97;5012196;28;20116;-78
2022/03/13 10:04:31;;;;;;;12.40;7.95;;;;;;;4.66;53.95;93307.75;5004485;28;20052;-79
2022/03/13 10:07:08;;;;;;;11.57;7.68;;;;;;;4.97;54.68;93303.13;5012544;28;20041;-79
2022/03/13 10:09:35;;;;;;;10.73;7.50;;;;;;;5.13;54.77;93301.59;5029711;28;20081;-78
2022/03/13 10:12:08;;;;;;;13.20;9.32;;;;;;;4.52;54.20;93299.41;5018742;28;20056;-77
2022/03/13 10:14:38;;;;;;;10.30;7.00;;;;;;;4.82;53.35;93308.03;5024994;28;20128;-77
2022/03/13 10:17:13;;;;;;;15.00;9.45;;;;;;;4.50;54.21;93300.66;5001284;28;20037;-77
2022/03/13 10:19:39;;;;;;;14.95;8.68;;;;;;;4.29;54.64;93300.22;5017646;28;20227;-77
2022/03/13 10:22:07;;;;;;;10.32;6.85;;;;;;;4.78;54.14;93300.72;5018443;28;20137;-78
2022/03/13 10:24:59;;;;;;;11.57;7.13;;;;;;;4.79;53.91;93288.53;5016090;28;20044;-76
2022/03/13 10:27:26;;;;;;;10.73;7.03;;;;;;;5.36;53.01;93290.34;5003444;28;20514;-76
2022/03/13 10:29:52;;;;;;;11.30;6.93;;;;;;;5.58;52.59;93291.22;4982174;28;20054;-77
2022/03/13 10:32:20;;;;;;;13.55;7.65;;;;;;;5.49;51.21;93287.41;5015421;28;20037;-77
2022/03/13 10:34:56;;;;;;;11.00;7.30;;;;;;;5.14;53.04;93296.19;5000614;28;20225;-77
2022/03/13 10:37:37;;;;;;;11.38;6.35;;;;;;;5.34;51.10;93289.78;5017445;28;20069;-77
2022/03/13 10:40:12;;;;;;;10.43;7.18;;;;;;;5.40;52.19;93286.22;5019390;28;20093;-79
2022/03/13 10:42:43;;;;;;;10.52;6.82;;;;;;;5.54;52.03;93279.72;5027405;28;20398;-77
2022/03/13 10:45:33;;;;;;;10.68;7.53;;;;;;;5.46;50.06;93277.50;5023346;28;20029;-78
2022/03/13 10:48:36;;;;;;;11.10;7.50;;;;;;;5.01;52.82;93278.28;5007012;28;20249;-78
2022/03/13 10:51:12;;;;;;;12.07;7.18;;;;;;;5.51;52.47;93279.41;5018431;28;20041;-78
2022/03/13 10:53:41;;;;;;;9.63;6.00;;;;;;;5.47;51.25;93286.09;5007242;28;20061;-77
2022/03/13 10:56:09;;;;;;;10.43;6.80;;;;;;;5.37;50.94;93278.91;5011854;28;20056;-74
2022/03/13 10:58:39;;;;;;;9.18;6.25;;;;;;;5.47;51.53;93268.72;5035582;28;20022;-75
2022/03/13 11:01:13;;;;;;;8.77;6.63;;;;;;;5.03;52.01;93278.84;5016741;28;20030;-77
2022/03/13 11:03:53;;;;;;;10.70;7.00;;;;;;;4.72;53.26;93278.28;4983688;28;20038;-77
2022/03/13 11:06:21;;;;;;;10.25;6.07;;;;;;;5.16;52.63;93262.22;5017372;28;20637;-76
2022/03/13 11:08:53;;;;;;;8.30;5.80;;;;;;;5.63;51.43;93269.75;5030748;28;20024;-78
2022/03/13 11:11:19;;;;;;;9.85;6.30;;;;;;;5.94;50.37;93262.41;4991721;28;20033;-77
2022/03/13 11:13:55;;;;;;;10.68;6.63;;;;;;;6.14;49.46;93261.94;4999235;28;20068;-77
2022/03/13 11:16:28;;;;;;;7.70;5.20;;;;;;;5.40;50.69;93260.28;5000420;28;20037;-77
2022/03/13 11:18:57;;;;;;;10.57;6.00;;;;;;;4.97;51.70;93254.59;5004814;28;20450;-78
2022/03/13 11:21:25;;;;;;;11.90;6.90;;;;;;;4.79;52.29;93254.78;5011515;28;20034;-77
2022/03/13 11:23:51;;;;;;;8.73;6.28;;;;;;;4.86;52.63;93250.25;5008982;28;20060;-77
2022/03/13 11:26:22;;;;;;;10.10;5.70;;;;;;;5.21;51.97;93247.50;5008251;28;20076;-77
2022/03/13 11:28:53;;;;;;;8.93;5.32;;;;;;;5.52;51.35;93255.81;5028576;28;20064;-78
2022/03/13 11:31:37;;;;;;;9.38;6.22;;;;;;;5.68;51.00;93253.44;5008298;28;20030;-77
2022/03/13 11:34:21;;;;;;;11.38;6.00;;;;;;;4.98;51.98;93245.03;5026328;28;20041;-76
2022/03/13 11:36:49;;;;;;;8.52;6.18;;;;;;;6.00;49.80;93240.69;5005697;28;20040;-77
2022/03/13 11:39:28;;;;;;;8.05;5.68;;;;;;;5.83;49.89;93248.47;5006616;28;20029;-79
2022/03/13 11:41:54;;;;;;;10.10;6.20;;;;;;;5.94;49.33;93244.19;5011038;28;20022;-78
2022/03/13 11:44:20;;;;;;;7.97;5.72;;;;;;;5.92;50.44;93247.06;5029302;28;20029;-78
2022/03/13 11:46:48;;;;;;;10.07;6.20;;;;;;;6.32;49.10;93237.47;5027740;28;20520;-78
2022/03/13 11:49:34;;;;;;;10.85;6.43;;;;;;;6.07;49.54;93240.53;5004878;28;20590;-77
2022/03/13 11:52:16;;;;;;;9.63;6.65;;;;;;;5.88;50.03;93232.97;5023069;28;20037;-77
2022/03/13 11:54:45;;;;;;;9.43;6.47;;;;;;;5.50;50.32;93231.88;5006676;28;20034;-79
2022/03/13 11:57:15;;;;;;;9.23;6.38;;;;;;;5.80;50.77;93235.94;5013800;28;20045;-75
2022/03/13 11:59:42;;;;;;;8.77;5.95;;;;;;;5.39;50.78;93236.13;5029389;28;20033;-77
2022/03/13 12:02:12;;;;;;;9.20;6.35;;;;;;;5.90;49.96;93224.91;5019001;28;20469;-80
2022/03/13 12:04:38;;;;;;;9.50;5.40;;;;;;;6.27;49.24;93221.81;5034010;28;20037;-79
2022/03/13 12:07:23;;;;;;;10.65;6.45;;;;;;;6.16;49.41;93213.09;5024965;28;20123;-77
2022/03/13 12:09:49;;;;;;;10.20;6.80;;;;;;;5.91;49.50;93226.50;5033550;28;20030;-78
2022/03/13 12:12:17;;;;;;;10.65;6.55;;;;;;;5.60;49.45;93203.44;5012585;28;20121;-76
2022/03/13 12:14:57;;;;;;;8.50;5.65;;;;;;;5.76;50.20;93216.66;5015345;28;20034;-74
2022/03/13 12:17:27;;;;;;;9.57;6.13;;;;;;;5.71;50.83;93224.41;5033410;28;20033;-76
2022/03/13 12:19:58;;;;;;;10.38;6.32;;;;;;;5.59;49.82;93217.47;5001526;28;20053;-75
2022/03/13 12:22:25;;;;;;;10.00;5.30;;;;;;;5.79;50.37;93214.38;5006726;28;20057;-76
2022/03/13 12:24:53;;;;;;;10.25;6.22;;;;;;;5.69;49.94;93213.44;5021353;28;20026;-78
2022/03/13 12:27:20;;;;;;;7.90;5.95;;;;;;;5.49;50.89;93213.94;5034688;28;20034;-77
2022/03/13 12:29:50;;;;;;;9.18;5.72;;;;;;;5.80;49.11;93209.97;5019765;28;20041;-79
2022/03/13 12:32:16;;;;;;;9.48;6.40;;;;;;;5.32;50.62;93208.75;5029247;28;20054;-82
2022/03/13 12:34:44;;;;;;;8.40;5.88;;;;;;;5.42;50.81;93208.88;5020217;28;20042;-80
2022/03/13 12:37:10;;;;;;;8.65;6.00;;;;;;;5.38;51.00;93194.81;5041095;28;20046;-81
2022/03/13 12:39:50;;;;;;;9.40;6.80;;;;;;;4.97;52.22;93201.94;5031103;28;20065;-76
2022/03/13 12:42:21;;;;;;;9.55;6.00;;;;;;;5.32;51.19;93199.16;5042027;28;20025;-82
2022/03/13 12:45:10;;;;;;;8.73;5.95;;;;;;;5.67;51.09;93203.28;5019588;28;20409;-79
2022/03/13 12:47:47;;;;;;;9.90;6.35;;;;;;;5.60;50.96;93200.06;5048379;28;20181;-79
2022/03/13 12:50:15;;;;;;;8.77;5.80;;;;;;;6.04;49.99;93195.78;5044088;28;20063;-81
2022/03/13 12:53:02;;;;;;;9.73;6.07;;;;;;;5.97;49.49;93202.97;5037458;28;20052;-80
2022/03/13 12:55:30;;;;;;;11.15;6.53;;;;;;;6.07;49.67;93191.13;5012539;28;20092;-79
2022/03/13 12:57:57;;;;;;;8.38;6.03;;;;;;;6.73;48.78;93193.69;5013835;28;20511;-81
2022/03/13 13:00:35;;;;;;;10.90;7.25;;;;;;;6.24;49.87;93184.06;5038090;28;20040;-83
2022/03/13 13:03:03;;;;;;;7.93;5.40;;;;;;;6.24;49.04;93189.28;5037337;28;20029;-78
2022/03/13 13:05:29;;;;;;;7.65;5.57;;;;;;;6.28;48.32;93192.94;5018339;28;20037;-81
2022/03/13 13:07:55;;;;;;;7.88;5.72;;;;;;;6.07;48.56;93191.13;5032883;28;20037;-81
2022/03/13 13:10:21;;;;;;;8.80;5.80;;;;;;;6.13;49.26;93182.38;5021737;28;20095;-81
2022/03/13 13:12:47;;;;;;;8.85;6.20;;;;;;;5.78;50.16;93194.59;5038130;28;20419;-80
2022/03/13 13:15:16;;;;;;;8.27;6.18;;;;;;;6.14;50.31;93204.72;4998572;28;20040;-80
2022/03/13 13:17:46;;;;;;;8.73;5.70;;;;;;;6.68;48.79;93197.03;5025062;28;20474;-76
2022/03/13 13:20:23;;;;;;;9.18;6.05;;;;;;;6.27;48.44;93175.78;5027881;28;20124;-81
2022/03/13 13:22:50;;;;;;;9.52;5.97;;;;;;;5.48;50.54;93199.38;5017686;28;20045;-77
2022/03/13 13:25:20;;;;;;;8.65;5.40;;;;;;;5.42;50.68;93194.09;4980545;28;20127;-77
2022/03/13 13:27:55;;;;;;;11.75;6.30;;;;;;;5.67;51.10;93184.31;5014438;28;20033;-79
2022/03/13 13:30:32;;;;;;;10.90;6.18;;;;;;;5.72;50.47;93184.38;5028350;28;20037;-80
2022/03/13 13:33:11;;;;;;;9.38;6.55;;;;;;;6.22;49.84;93183.53;5032346;28;20041;-77
2022/03/13 13:35:49;;;;;;;8.38;5.90;;;;;;;6.57;48.54;93179.75;5009880;28;20126;-78
2022/03/13 13:38:16;;;;;;;10.20;6.35;;;;;;;7.21;47.48;93179.84;5011244;28;20033;-78
2022/03/13 13:41:00;;;;;;;11.00;6.38;;;;;;;7.05;47.74;93170.34;5013642;28;20093;-79
2022/03/13 13:43:32;;;;;;;10.75;7.40;;;;;;;7.14;47.03;93173.25;5019499;28;20045;-78
2022/03/13 13:46:09;;;;;;;10.75;7.30;;;;;;;7.04;46.81;93172.13;5030912;28;20092;-78
2022/03/13 13:48:51;;;;;;;9.52;6.05;;;;;;;7.39;47.47;93177.91;5029025;28;20660;-79
2022/03/13 13:51:29;;;;;;;10.05;6.03;;;;;;;6.43;47.99;93182.72;5034081;28;20026;-78
2022/03/13 13:54:10;;;;;;;10.60;7.18;;;;;;;6.45;48.51;93178.06;5002816;28;20041;-78
2022/03/13 13:56:39;;;;;;;11.27;6.20;;;;;;;6.36;49.39;93171.72;5025352;28;20040;-75
2022/03/13 13:59:13;;;;;;;9.80;6.57;;;;;;;6.45;48.77;93172.88;5017402;28;20053;-76